createdAt,value
2018-05-21T00:00:09.851Z,7.78
2018-05-21T00:01:09.904Z,7.72
2018-05-21T00:02:09.852Z,7.78
2018-05-21T00:03:09.824Z,7.73
2018-05-21T00:04:09.855Z,7.63
2018-05-21T00:05:09.847Z,7.7
2018-05-21T00:06:09.882Z,7.78
2018-05-21T00:07:09.851Z,7.6
2018-05-21T00:08:09.846Z,7.72
2018-05-21T00:09:09.880Z,7.6
2018-05-21T00:10:09.841Z,7.65
2018-05-21T00:11:09.949Z,7.74
2018-05-21T00:12:09.823Z,7.66
2018-05-21T00:13:09.864Z,7.82
2018-05-21T00:14:09.814Z,7.62
2018-05-21T00:15:09.884Z,7.69
2018-05-21T00:16:09.878Z,7.83
2018-05-21T00:17:09.862Z,7.7
2018-05-21T00:18:09.831Z,7.73
2018-05-21T00:19:09.854Z,7.64
2018-05-21T00:20:09.839Z,7.78
2018-05-21T00:21:09.979Z,7.74
2018-05-21T00:22:09.852Z,7.87
2018-05-21T00:23:09.858Z,7.81
2018-05-21T00:24:09.830Z,7.81
2018-05-21T00:25:09.827Z,7.75
2018-05-21T00:26:09.845Z,7.8
2018-05-21T00:27:09.841Z,7.64
2018-05-21T00:28:09.841Z,7.64
2018-05-21T00:29:09.890Z,7.67
2018-05-21T00:30:09.844Z,7.86
2018-05-21T00:31:09.888Z,7.83
2018-05-21T00:32:09.872Z,7.72
2018-05-21T00:33:09.866Z,7.75
2018-05-21T00:34:09.852Z,7.67
2018-05-21T00:35:09.908Z,7.62
2018-05-21T00:36:09.843Z,7.67
2018-05-21T00:37:09.858Z,7.67
2018-05-21T00:38:09.845Z,7.56
2018-05-21T00:39:09.868Z,7.59
2018-05-21T00:40:09.836Z,7.6
2018-05-21T00:41:09.881Z,7.64
2018-05-21T00:42:09.846Z,7.66
2018-05-21T00:43:09.834Z,7.6
2018-05-21T00:44:09.959Z,7.66
2018-05-21T00:45:09.928Z,7.62
2018-05-21T00:46:09.827Z,7.45
2018-05-21T00:47:09.845Z,7.53
2018-05-21T00:48:09.865Z,7.49
2018-05-21T00:49:09.868Z,7.51
2018-05-21T00:50:09.863Z,7.54
2018-05-21T00:51:09.897Z,7.48
2018-05-21T00:52:09.858Z,7.52
2018-05-21T00:53:09.958Z,7.58
2018-05-21T00:54:09.888Z,7.58
2018-05-21T00:55:09.901Z,7.52
2018-05-21T00:56:09.951Z,7.56
2018-05-21T00:57:09.855Z,7.55
2018-05-21T00:58:10.164Z,7.5
2018-05-21T00:59:09.965Z,7.59
2018-05-21T01:00:09.873Z,7.44
2018-05-21T01:01:10.059Z,7.5
2018-05-21T01:02:09.880Z,7.48
2018-05-21T01:03:09.869Z,7.51
2018-05-21T01:04:09.863Z,7.56
2018-05-21T01:05:09.933Z,7.55
2018-05-21T01:06:09.859Z,7.53
2018-05-21T01:07:10.012Z,7.44
2018-05-21T01:08:09.868Z,7.46
2018-05-21T01:09:10.049Z,7.53
2018-05-21T01:10:09.926Z,7.5
2018-05-21T01:11:09.957Z,7.49
2018-05-21T01:12:09.865Z,7.33
2018-05-21T01:13:09.875Z,7.42
2018-05-21T01:14:09.852Z,7.41
2018-05-21T01:15:10.156Z,7.37
2018-05-21T01:16:09.912Z,7.41
2018-05-21T01:17:09.871Z,7.41
2018-05-21T01:18:09.852Z,7.37
2018-05-21T01:19:10.055Z,7.4
2018-05-21T01:20:10.120Z,7.51
2018-05-21T01:21:09.890Z,7.37
2018-05-21T01:22:09.888Z,7.35
2018-05-21T01:23:09.876Z,7.32
2018-05-21T01:24:10.058Z,7.37
2018-05-21T01:25:09.928Z,7.37
2018-05-21T01:26:09.960Z,7.5
2018-05-21T01:27:09.885Z,7.4
2018-05-21T01:28:09.865Z,7.4
2018-05-21T01:29:09.888Z,7.47
2018-05-21T01:30:09.885Z,7.41
2018-05-21T01:31:09.858Z,7.47
2018-05-21T01:32:09.875Z,7.37
2018-05-21T01:33:09.986Z,7.39
2018-05-21T01:34:09.850Z,7.35
2018-05-21T01:35:09.885Z,7.36
2018-05-21T01:36:09.870Z,7.3
2018-05-21T01:37:09.868Z,7.31
2018-05-21T01:38:09.859Z,7.37
2018-05-21T01:39:09.872Z,7.39
2018-05-21T01:40:09.860Z,7.34
2018-05-21T01:41:09.858Z,7.45
2018-05-21T01:42:09.884Z,7.35
2018-05-21T01:43:09.911Z,7.4
2018-05-21T01:44:09.904Z,7.43
2018-05-21T01:45:09.881Z,7.35
2018-05-21T01:46:09.860Z,7.38
2018-05-21T01:47:09.872Z,7.38
2018-05-21T01:48:09.864Z,7.43
2018-05-21T01:49:09.898Z,7.47
2018-05-21T01:50:09.884Z,7.36
2018-05-21T01:51:09.904Z,7.44
2018-05-21T01:52:09.884Z,7.49
2018-05-21T01:53:09.862Z,7.43
2018-05-21T01:54:09.864Z,7.49
2018-05-21T01:55:09.907Z,7.45
2018-05-21T01:56:10.151Z,7.4
2018-05-21T01:57:10.026Z,7.34
2018-05-21T01:58:09.953Z,7.38
2018-05-21T01:59:09.906Z,7.43
2018-05-21T02:00:09.958Z,7.47
2018-05-21T02:01:09.876Z,7.37
2018-05-21T02:02:10.012Z,7.38
2018-05-21T02:03:09.928Z,7.48
2018-05-21T02:04:09.896Z,7.4
2018-05-21T02:05:10.013Z,7.4
2018-05-21T02:06:09.911Z,7.41
2018-05-21T02:07:10.029Z,7.4
2018-05-21T02:08:10.015Z,7.36
2018-05-21T02:09:09.898Z,7.4
2018-05-21T02:10:09.884Z,7.35
2018-05-21T02:11:10.034Z,7.38
2018-05-21T02:12:09.887Z,7.48
2018-05-21T02:13:09.925Z,7.41
2018-05-21T02:14:09.967Z,7.42
2018-05-21T02:15:09.978Z,7.42
2018-05-21T02:16:10.053Z,7.4
2018-05-21T02:17:09.901Z,7.39
2018-05-21T02:18:10.022Z,7.43
2018-05-21T02:19:10.003Z,7.4
2018-05-21T02:20:10.165Z,7.31
2018-05-21T02:21:10.018Z,7.4
2018-05-21T02:22:10.022Z,7.43
2018-05-21T02:23:10.440Z,7.4
2018-05-21T02:24:09.929Z,7.39
2018-05-21T02:25:09.909Z,7.33
2018-05-21T02:26:09.880Z,7.4
2018-05-21T02:27:10.028Z,7.3
2018-05-21T02:28:10.070Z,7.34
2018-05-21T02:29:09.968Z,7.35
2018-05-21T02:30:09.946Z,7.43
2018-05-21T02:31:09.907Z,7.36
2018-05-21T02:32:09.973Z,7.41
2018-05-21T02:33:10.022Z,7.38
2018-05-21T02:34:09.899Z,7.35
2018-05-21T02:35:10.018Z,7.32
2018-05-21T02:36:10.019Z,7.3
2018-05-21T02:37:10.013Z,7.36
2018-05-21T02:38:09.952Z,7.34
2018-05-21T02:39:10.029Z,7.32
2018-05-21T02:40:09.966Z,7.36
2018-05-21T02:41:10.031Z,7.32
2018-05-21T02:42:09.902Z,7.32
2018-05-21T02:43:09.964Z,7.38
2018-05-21T02:44:09.946Z,7.37
2018-05-21T02:45:10.180Z,7.42
2018-05-21T02:46:10.016Z,7.42
2018-05-21T02:47:09.923Z,7.38
2018-05-21T02:48:09.897Z,7.37
2018-05-21T02:49:09.898Z,7.35
2018-05-21T02:50:09.955Z,7.37
2018-05-21T02:51:09.923Z,7.39
2018-05-21T02:52:09.883Z,7.33
2018-05-21T02:53:09.929Z,7.39
2018-05-21T02:54:10.031Z,7.36
2018-05-21T02:55:09.908Z,7.37
2018-05-21T02:56:09.910Z,7.39
2018-05-21T02:57:10.006Z,7.4
2018-05-21T02:58:09.916Z,7.38
2018-05-21T02:59:09.906Z,7.35
2018-05-21T03:00:09.905Z,7.38
2018-05-21T03:01:09.917Z,7.4
2018-05-21T03:02:09.914Z,7.46
2018-05-21T03:03:09.924Z,7.34
2018-05-21T03:04:09.905Z,7.34
2018-05-21T03:05:09.912Z,7.39
2018-05-21T03:06:09.942Z,7.37
2018-05-21T03:07:09.992Z,7.38
2018-05-21T03:08:10.025Z,7.41
2018-05-21T03:09:09.979Z,7.45
2018-05-21T03:10:09.929Z,7.44
2018-05-21T03:11:09.921Z,7.41
2018-05-21T03:12:09.932Z,7.36
2018-05-21T03:13:10.107Z,7.44
2018-05-21T03:14:10.076Z,7.44
2018-05-21T03:15:09.954Z,7.38
2018-05-21T03:16:10.053Z,7.42
2018-05-21T03:17:09.987Z,7.4
2018-05-21T03:18:09.926Z,7.42
2018-05-21T03:19:10.033Z,7.43
2018-05-21T03:20:09.906Z,7.46
2018-05-21T03:21:09.989Z,7.38
2018-05-21T03:22:09.929Z,7.47
2018-05-21T03:23:09.937Z,7.39
2018-05-21T03:24:10.075Z,7.39
2018-05-21T03:25:09.947Z,7.43
2018-05-21T03:26:09.956Z,7.45
2018-05-21T03:27:10.012Z,7.39
2018-05-21T03:28:09.969Z,7.41
2018-05-21T03:29:10.044Z,7.44
2018-05-21T03:30:09.926Z,7.44
2018-05-21T03:31:10.054Z,7.43
2018-05-21T03:32:10.061Z,7.44
2018-05-21T03:33:09.978Z,7.4
2018-05-21T03:34:10.035Z,7.45
2018-05-21T03:35:10.155Z,7.46
2018-05-21T03:36:10.133Z,7.52
2018-05-21T03:37:09.916Z,7.47
2018-05-21T03:38:10.086Z,7.45
2018-05-21T03:39:10.037Z,7.45
2018-05-21T03:40:10.021Z,7.43
2018-05-21T03:41:09.983Z,7.48
2018-05-21T03:42:09.964Z,7.49
2018-05-21T03:43:10.099Z,7.49
2018-05-21T03:44:10.001Z,7.48
2018-05-21T03:45:10.064Z,7.47
2018-05-21T03:46:09.989Z,7.5
2018-05-21T03:47:09.976Z,7.47
2018-05-21T03:48:09.966Z,7.52
2018-05-21T03:49:10.049Z,7.48
2018-05-21T03:50:09.965Z,7.54
2018-05-21T03:51:09.943Z,7.54
2018-05-21T03:52:09.932Z,7.58
2018-05-21T03:53:10.005Z,7.55
2018-05-21T03:54:10.051Z,7.51
2018-05-21T03:55:10.020Z,7.55
2018-05-21T03:56:10.014Z,7.54
2018-05-21T03:57:09.954Z,7.58
2018-05-21T03:58:09.931Z,7.56
2018-05-21T03:59:09.946Z,7.58
2018-05-21T04:00:09.937Z,7.55
2018-05-21T04:01:09.943Z,7.6
2018-05-21T04:02:09.909Z,7.57
2018-05-21T04:03:09.925Z,7.57
2018-05-21T04:04:09.982Z,7.54
2018-05-21T04:05:09.954Z,7.65
2018-05-21T04:06:09.924Z,7.59
2018-05-21T04:07:10.127Z,7.64
2018-05-21T04:08:09.942Z,7.59
2018-05-21T04:09:09.929Z,7.59
2018-05-21T04:10:09.946Z,7.61
2018-05-21T04:11:09.934Z,7.63
2018-05-21T04:12:09.957Z,7.65
2018-05-21T04:13:10.022Z,7.61
2018-05-21T04:14:09.944Z,7.67
2018-05-21T04:15:10.057Z,7.66
2018-05-21T04:16:09.929Z,7.66
2018-05-21T04:17:09.953Z,7.66
2018-05-21T04:18:09.935Z,7.67
2018-05-21T04:19:09.973Z,7.67
2018-05-21T04:20:09.999Z,7.7
2018-05-21T04:21:10.077Z,7.68
2018-05-21T04:22:09.940Z,7.73
2018-05-21T04:23:10.081Z,7.73
2018-05-21T04:24:10.102Z,7.75
2018-05-21T04:25:10.042Z,7.78
2018-05-21T04:26:09.998Z,7.78
2018-05-21T04:27:10.145Z,7.76
2018-05-21T04:28:10.058Z,7.73
2018-05-21T04:29:09.967Z,7.79
2018-05-21T04:30:10.022Z,7.85
2018-05-21T04:31:10.034Z,7.76
2018-05-21T04:32:10.045Z,7.8
2018-05-21T04:33:10.027Z,7.83
2018-05-21T04:34:10.056Z,7.78
2018-05-21T04:35:10.027Z,7.83
2018-05-21T04:36:10.011Z,7.86
2018-05-21T04:37:10.057Z,7.85
2018-05-21T04:38:10.164Z,7.89
2018-05-21T04:39:10.071Z,7.89
2018-05-21T04:40:10.090Z,7.89
2018-05-21T04:41:10.006Z,7.9
2018-05-21T04:42:09.977Z,7.9
2018-05-21T04:43:10.079Z,7.92
2018-05-21T04:44:10.101Z,7.9
2018-05-21T04:45:10.096Z,7.95
2018-05-21T04:46:10.054Z,7.99
2018-05-21T04:47:10.114Z,8.02
2018-05-21T04:48:09.992Z,7.97
2018-05-21T04:49:09.961Z,7.99
2018-05-21T04:50:10.136Z,8
2018-05-21T04:51:10.038Z,8.02
2018-05-21T04:52:10.040Z,8.06
2018-05-21T04:53:10.075Z,8.06
2018-05-21T04:54:09.962Z,8.07
2018-05-21T04:55:10.042Z,8.02
2018-05-21T04:56:10.037Z,8.05
2018-05-21T04:57:10.089Z,8.13
2018-05-21T04:58:10.008Z,8.1
2018-05-21T04:59:10.091Z,8.09
2018-05-21T05:00:10.136Z,8.07
2018-05-21T05:01:09.974Z,8.1
2018-05-21T05:02:10.021Z,8.13
2018-05-21T05:03:10.046Z,8.15
2018-05-21T05:04:09.977Z,8.09
2018-05-21T05:05:10.088Z,8.15
2018-05-21T05:06:10.018Z,8.15
2018-05-21T05:07:10.216Z,8.14
2018-05-21T05:08:09.963Z,8.15
2018-05-21T05:09:10.032Z,8.2
2018-05-21T05:10:09.974Z,8.24
2018-05-21T05:11:09.982Z,8.26
2018-05-21T05:12:09.972Z,8.29
2018-05-21T05:13:09.971Z,8.28
2018-05-21T05:14:10.044Z,8.32
2018-05-21T05:15:10.048Z,8.22
2018-05-21T05:16:10.015Z,8.27
2018-05-21T05:17:09.993Z,8.29
2018-05-21T05:18:09.973Z,8.32
2018-05-21T05:19:09.963Z,8.26
2018-05-21T05:20:09.969Z,8.26
2018-05-21T05:21:10.545Z,8.33
2018-05-21T05:22:10.025Z,8.32
2018-05-21T05:23:09.989Z,8.3
2018-05-21T05:24:10.036Z,8.28
2018-05-21T05:25:09.987Z,8.33
2018-05-21T05:26:09.990Z,8.31
2018-05-21T05:27:10.051Z,8.38
2018-05-21T05:28:10.050Z,8.46
2018-05-21T05:29:09.973Z,8.4
2018-05-21T05:30:10.037Z,8.4
2018-05-21T05:31:10.117Z,8.33
2018-05-21T05:32:09.977Z,8.42
2018-05-21T05:33:09.994Z,8.37
2018-05-21T05:34:10.025Z,8.37
2018-05-21T05:35:10.034Z,8.35
2018-05-21T05:36:10.036Z,8.42
2018-05-21T05:37:09.982Z,8.39
2018-05-21T05:38:09.982Z,8.39
2018-05-21T05:39:10.081Z,8.36
2018-05-21T05:40:10.056Z,8.46
2018-05-21T05:41:10.090Z,8.48
2018-05-21T05:42:11.109Z,8.44
2018-05-21T05:43:10.719Z,8.37
2018-05-21T05:44:10.129Z,8.41
2018-05-21T05:45:10.055Z,8.41
2018-05-21T05:46:10.039Z,8.51
2018-05-21T05:47:10.049Z,8.52
2018-05-21T05:48:10.000Z,8.56
2018-05-21T05:49:10.016Z,8.54
2018-05-21T05:50:10.011Z,8.5
2018-05-21T05:51:10.026Z,8.54
2018-05-21T05:52:10.077Z,8.59
2018-05-21T05:53:10.119Z,8.57
2018-05-21T05:54:10.011Z,8.56
2018-05-21T05:55:10.038Z,8.57
2018-05-21T05:56:10.108Z,8.54
2018-05-21T05:57:10.076Z,8.59
2018-05-21T05:58:10.073Z,8.61
2018-05-21T05:59:10.147Z,8.65
2018-05-21T06:00:10.072Z,8.65
2018-05-21T06:01:10.025Z,8.65
2018-05-21T06:02:10.047Z,8.67
2018-05-21T06:03:10.060Z,8.67
2018-05-21T06:04:10.052Z,8.67
2018-05-21T06:05:10.031Z,8.74
2018-05-21T06:06:10.036Z,8.71
2018-05-21T06:07:10.263Z,8.6
2018-05-21T06:08:10.032Z,8.64
2018-05-21T06:09:10.074Z,8.69
2018-05-21T06:10:10.058Z,8.64
2018-05-21T06:11:09.994Z,8.75
2018-05-21T06:12:09.990Z,8.7
2018-05-21T06:13:10.054Z,8.75
2018-05-21T06:14:10.010Z,8.81
2018-05-21T06:15:10.029Z,8.71
2018-05-21T06:16:10.018Z,8.79
2018-05-21T06:17:10.055Z,8.72
2018-05-21T06:18:10.022Z,8.69
2018-05-21T06:19:10.043Z,8.81
2018-05-21T06:20:10.053Z,8.8
2018-05-21T06:21:10.069Z,8.81
2018-05-21T06:22:10.043Z,8.84
2018-05-21T06:23:10.034Z,8.74
2018-05-21T06:24:10.053Z,8.78
2018-05-21T06:25:10.027Z,8.75
2018-05-21T06:26:10.044Z,8.74
2018-05-21T06:27:10.030Z,8.79
2018-05-21T06:28:10.110Z,8.83
2018-05-21T06:29:10.069Z,8.81
2018-05-21T06:30:10.040Z,8.72
2018-05-21T06:31:10.072Z,8.72
2018-05-21T06:32:10.027Z,8.75
2018-05-21T06:33:10.036Z,8.77
2018-05-21T06:34:11.267Z,8.84
2018-05-21T06:35:10.098Z,8.79
2018-05-21T06:36:10.028Z,8.76
2018-05-21T06:37:10.047Z,8.88
2018-05-21T06:38:10.070Z,8.81
2018-05-21T06:39:10.092Z,8.82
2018-05-21T06:40:10.102Z,8.82
2018-05-21T06:41:10.581Z,8.89
2018-05-21T06:42:10.044Z,8.9
2018-05-21T06:43:10.016Z,8.88
2018-05-21T06:44:11.044Z,8.82
2018-05-21T06:45:10.074Z,8.81
2018-05-21T06:46:10.029Z,8.82
2018-05-21T06:47:10.178Z,8.87
2018-05-21T06:48:10.113Z,8.89
2018-05-21T06:49:10.125Z,8.85
2018-05-21T06:50:10.084Z,8.93
2018-05-21T06:51:10.141Z,8.9
2018-05-21T06:52:10.213Z,8.87
2018-05-21T06:53:10.068Z,8.94
2018-05-21T06:54:10.127Z,8.89
2018-05-21T06:55:10.101Z,8.91
2018-05-21T06:56:10.170Z,9
2018-05-21T06:57:10.211Z,8.96
2018-05-21T06:58:10.068Z,9.01
2018-05-21T06:59:10.055Z,8.89
2018-05-21T07:00:10.125Z,8.98
2018-05-21T07:01:10.057Z,8.93
2018-05-21T07:02:10.076Z,8.97
2018-05-21T07:03:10.084Z,9.04
2018-05-21T07:04:10.189Z,9.07
2018-05-21T07:05:10.089Z,9.03
2018-05-21T07:06:10.076Z,9.05
2018-05-21T07:07:10.266Z,9.09
2018-05-21T07:08:10.082Z,9.05
2018-05-21T07:09:10.065Z,9.06
2018-05-21T07:10:10.072Z,9.06
2018-05-21T07:11:10.080Z,9.1
2018-05-21T07:12:10.185Z,9.19
2018-05-21T07:13:10.056Z,9.12
2018-05-21T07:14:10.123Z,9.15
2018-05-21T07:15:10.231Z,9.16
2018-05-21T07:16:10.188Z,9.2
2018-05-21T07:17:10.064Z,9.25
2018-05-21T07:18:10.587Z,9.14
2018-05-21T07:19:10.214Z,9.25
2018-05-21T07:20:10.096Z,9.29
2018-05-21T07:21:10.041Z,9.27
2018-05-21T07:22:10.085Z,9.19
2018-05-21T07:23:10.103Z,9.29
2018-05-21T07:24:10.053Z,9.35
2018-05-21T07:25:10.139Z,9.27
2018-05-21T07:26:10.056Z,9.21
2018-05-21T07:27:10.071Z,9.26
2018-05-21T07:28:10.082Z,9.43
2018-05-21T07:29:10.182Z,9.35
2018-05-21T07:30:10.090Z,9.38
2018-05-21T07:31:10.173Z,9.36
2018-05-21T07:32:10.123Z,9.29
2018-05-21T07:33:10.060Z,9.42
2018-05-21T07:34:10.080Z,9.37
2018-05-21T07:35:10.059Z,9.48
2018-05-21T07:36:10.044Z,9.37
2018-05-21T07:37:10.068Z,9.44
2018-05-21T07:38:10.043Z,9.4
2018-05-21T07:39:10.069Z,9.4
2018-05-21T07:40:10.091Z,9.48
2018-05-21T07:41:10.066Z,9.35
2018-05-21T07:42:10.082Z,9.33
2018-05-21T07:43:10.170Z,9.27
2018-05-21T07:44:10.047Z,9.31
2018-05-21T07:45:10.103Z,9.61
2018-05-21T07:46:10.091Z,9.35
2018-05-21T07:47:10.050Z,9.38
2018-05-21T07:48:10.292Z,9.51
2018-05-21T07:49:10.055Z,9.42
2018-05-21T07:50:10.085Z,9.44
2018-05-21T07:51:10.074Z,9.45
2018-05-21T07:52:10.076Z,9.28
2018-05-21T07:53:10.137Z,9.37
2018-05-21T07:54:10.051Z,9.29
2018-05-21T07:55:10.046Z,9.3
2018-05-21T07:56:10.273Z,9.42
2018-05-21T07:57:10.070Z,9.45
2018-05-21T07:58:10.571Z,9.42
2018-05-21T07:59:10.092Z,9.3
2018-05-21T08:00:10.162Z,9.4
2018-05-21T08:01:10.089Z,9.51
2018-05-21T08:02:10.116Z,9.42
2018-05-21T08:03:10.102Z,9.45
2018-05-21T08:04:10.165Z,9.5
2018-05-21T08:05:10.402Z,9.47
2018-05-21T08:06:10.108Z,9.48
2018-05-21T08:07:10.112Z,9.45
2018-05-21T08:08:10.109Z,9.49
2018-05-21T08:09:10.154Z,9.42
2018-05-21T08:10:10.130Z,9.72
2018-05-21T08:11:10.167Z,9.51
2018-05-21T08:12:10.087Z,9.75
2018-05-21T08:13:10.122Z,9.69
2018-05-21T08:14:10.062Z,9.78
2018-05-21T08:15:10.305Z,9.57
2018-05-21T08:16:10.064Z,9.62
2018-05-21T08:17:10.087Z,9.63
2018-05-21T08:18:10.065Z,9.59
2018-05-21T08:19:10.064Z,9.76
2018-05-21T08:20:10.062Z,9.59
2018-05-21T08:21:10.095Z,9.57
2018-05-21T08:22:10.744Z,9.43
2018-05-21T08:23:10.963Z,9.42
2018-05-21T08:24:10.116Z,9.49
2018-05-21T08:25:10.113Z,9.61
2018-05-21T08:26:10.107Z,9.69
2018-05-21T08:27:10.142Z,9.58
2018-05-21T08:28:10.087Z,9.75
2018-05-21T08:29:10.079Z,9.67
2018-05-21T08:30:10.081Z,9.7
2018-05-21T08:31:10.109Z,9.69
2018-05-21T08:32:10.062Z,9.84
2018-05-21T08:33:10.090Z,9.63
2018-05-21T08:34:10.093Z,9.67
2018-05-21T08:35:10.064Z,9.81
2018-05-21T08:36:10.924Z,9.72
2018-05-21T08:37:10.081Z,9.72
2018-05-21T08:38:10.119Z,9.75
2018-05-21T08:39:10.471Z,9.76
2018-05-21T08:40:10.055Z,9.71
2018-05-21T08:41:10.078Z,9.87
2018-05-21T08:42:10.123Z,9.91
2018-05-21T08:43:10.178Z,9.81
2018-05-21T08:44:10.084Z,9.68
2018-05-21T08:45:10.731Z,9.8
2018-05-21T08:46:10.092Z,9.83
2018-05-21T08:47:10.155Z,9.94
2018-05-21T08:48:10.118Z,10.03
2018-05-21T08:49:10.100Z,9.98
2018-05-21T08:50:10.125Z,9.83
2018-05-21T08:51:10.159Z,10.11
2018-05-21T08:52:10.176Z,9.92
2018-05-21T08:53:10.298Z,10.07
2018-05-21T08:54:10.325Z,10.05
2018-05-21T08:55:10.661Z,10
2018-05-21T08:56:10.153Z,9.98
2018-05-21T08:57:10.126Z,9.89
2018-05-21T08:58:10.103Z,10.06
2018-05-21T08:59:10.142Z,10
2018-05-21T09:00:10.185Z,9.94
2018-05-21T09:01:10.114Z,9.83
2018-05-21T09:02:10.121Z,9.87
2018-05-21T09:03:10.126Z,9.88
2018-05-21T09:04:10.100Z,9.86
2018-05-21T09:05:10.120Z,9.94
2018-05-21T09:06:10.118Z,10
2018-05-21T09:07:10.467Z,9.94
2018-05-21T09:08:10.130Z,9.81
2018-05-21T09:09:10.164Z,9.96
2018-05-21T09:10:11.043Z,9.84
2018-05-21T09:11:10.145Z,9.93
2018-05-21T09:12:10.132Z,9.83
2018-05-21T09:13:10.139Z,10.02
2018-05-21T09:14:10.298Z,9.89
2018-05-21T09:15:10.110Z,10.07
2018-05-21T09:16:10.116Z,9.76
2018-05-21T09:17:10.137Z,9.82
2018-05-21T09:18:10.303Z,9.95
2018-05-21T09:19:10.146Z,9.96
2018-05-21T09:20:10.145Z,9.95
2018-05-21T09:21:10.138Z,9.99
2018-05-21T09:22:10.092Z,9.88
2018-05-21T09:23:10.102Z,10.06
2018-05-21T09:24:10.116Z,10.08
2018-05-21T09:25:10.139Z,10.08
2018-05-21T09:26:11.244Z,9.96
2018-05-21T09:27:10.113Z,9.95
2018-05-21T09:28:10.093Z,9.99
2018-05-21T09:29:10.126Z,10.04
2018-05-21T09:30:10.156Z,10.14
2018-05-21T09:31:10.396Z,10.04
2018-05-21T09:32:10.112Z,9.91
2018-05-21T09:33:10.156Z,9.99
2018-05-21T09:34:10.217Z,9.93
2018-05-21T09:35:10.111Z,9.88
2018-05-21T09:36:10.294Z,9.92
2018-05-21T09:37:10.244Z,10.06
2018-05-21T09:38:10.179Z,10.23
2018-05-21T09:39:10.183Z,10.02
2018-05-21T09:40:10.126Z,10.2
2018-05-21T09:41:10.105Z,10.29
2018-05-21T09:42:10.117Z,10.12
2018-05-21T09:43:10.142Z,10.15
2018-05-21T09:44:10.156Z,10.34
2018-05-21T09:45:10.178Z,10.21
2018-05-21T09:46:10.132Z,10.16
2018-05-21T09:47:10.139Z,10.19
2018-05-21T09:48:10.483Z,10.31
2018-05-21T09:49:10.135Z,10.11
2018-05-21T09:50:10.142Z,10.35
2018-05-21T09:51:10.197Z,10.23
2018-05-21T09:52:10.215Z,10.26
2018-05-21T09:53:10.159Z,10.47
2018-05-21T09:54:10.124Z,10.43
2018-05-21T09:55:10.102Z,10.49
2018-05-21T09:56:10.117Z,10.41
2018-05-21T09:57:10.122Z,10.46
2018-05-21T09:58:10.177Z,10.47
2018-05-21T09:59:10.179Z,10.37
2018-05-21T10:00:10.132Z,10.29
2018-05-21T10:01:10.310Z,10.08
2018-05-21T10:02:10.158Z,10.27
2018-05-21T10:03:10.144Z,10.54
2018-05-21T10:04:10.296Z,10.44
2018-05-21T10:05:10.236Z,10.18
2018-05-21T10:06:10.182Z,10.21
2018-05-21T10:07:10.249Z,9.98
2018-05-21T10:08:10.160Z,10.14
2018-05-21T10:09:10.272Z,10.07
2018-05-21T10:10:10.137Z,10.12
2018-05-21T10:11:10.184Z,10.14
2018-05-21T10:12:11.992Z,10.15
2018-05-21T10:13:10.123Z,10.28
2018-05-21T10:14:10.218Z,10.29
2018-05-21T10:15:10.302Z,10.32
2018-05-21T10:16:10.120Z,10.56
2018-05-21T10:17:10.450Z,10.42
2018-05-21T10:18:10.355Z,10.1
2018-05-21T10:19:10.184Z,10.13
2018-05-21T10:20:10.353Z,10.28
2018-05-21T10:21:10.339Z,10.21
2018-05-21T10:22:10.342Z,10.41
2018-05-21T10:23:10.260Z,10.32
2018-05-21T10:24:10.301Z,10.13
2018-05-21T10:25:10.264Z,10.22
2018-05-21T10:26:10.567Z,10.21
2018-05-21T10:27:10.306Z,10.4
2018-05-21T10:28:10.301Z,10.24
2018-05-21T10:29:10.321Z,10.41
2018-05-21T10:30:10.464Z,10.44
2018-05-21T10:31:10.349Z,10.59
2018-05-21T10:32:10.312Z,10.52
2018-05-21T10:33:10.981Z,10.59
2018-05-21T10:34:10.356Z,10.45
2018-05-21T10:35:10.317Z,10.48
2018-05-21T10:36:10.917Z,10.39
2018-05-21T10:37:10.939Z,10.49
2018-05-21T10:38:10.373Z,10.52
2018-05-21T10:39:10.258Z,10.52
2018-05-21T10:40:10.369Z,10.6
2018-05-21T10:41:10.272Z,10.49
2018-05-21T10:42:10.280Z,10.64
2018-05-21T10:43:10.144Z,10.51
2018-05-21T10:44:10.320Z,10.67
2018-05-21T10:45:10.393Z,10.51
2018-05-21T10:46:10.147Z,10.31
2018-05-21T10:47:10.312Z,10.17
2018-05-21T10:48:10.312Z,10.1
2018-05-21T10:49:10.442Z,10.38
2018-05-21T10:50:10.226Z,10.47
2018-05-21T10:51:10.176Z,10.43
2018-05-21T10:52:10.190Z,10.32
2018-05-21T10:53:10.361Z,10.57
2018-05-21T10:54:10.188Z,10.27
2018-05-21T10:55:10.399Z,10.47
2018-05-21T10:56:10.487Z,10.41
2018-05-21T10:57:10.243Z,10.39
2018-05-21T10:58:10.272Z,10.51
2018-05-21T10:59:10.233Z,10.51
2018-05-21T11:00:10.312Z,10.68
2018-05-21T11:01:10.156Z,10.64
2018-05-21T11:02:10.273Z,10.58
2018-05-21T11:03:10.158Z,10.43
2018-05-21T11:04:10.198Z,10.83
2018-05-21T11:05:10.222Z,10.39
2018-05-21T11:06:10.177Z,10.45
2018-05-21T11:07:10.186Z,10.36
2018-05-21T11:08:10.197Z,10.5
2018-05-21T11:09:10.170Z,10.48
2018-05-21T11:10:10.169Z,10.35
2018-05-21T11:11:10.189Z,10.53
2018-05-21T11:12:10.569Z,10.51
2018-05-21T11:13:10.258Z,10.68
2018-05-21T11:14:10.261Z,10.65
2018-05-21T11:15:10.161Z,10.64
2018-05-21T11:16:10.155Z,10.72
2018-05-21T11:17:10.187Z,10.66
2018-05-21T11:18:10.203Z,10.78
2018-05-21T11:19:10.333Z,10.84
2018-05-21T11:20:10.333Z,10.67
2018-05-21T11:21:10.201Z,10.87
2018-05-21T11:22:10.175Z,10.87
2018-05-21T11:23:10.186Z,10.88
2018-05-21T11:24:10.237Z,10.74
2018-05-21T11:25:10.269Z,10.7
2018-05-21T11:26:10.225Z,10.45
2018-05-21T11:27:10.293Z,10.39
2018-05-21T11:28:10.221Z,10.26
2018-05-21T11:29:10.266Z,10.23
2018-05-21T11:30:10.928Z,10.5
2018-05-21T11:31:10.408Z,10.53
2018-05-21T11:32:10.193Z,10.55
2018-05-21T11:33:10.211Z,10.78
2018-05-21T11:34:10.193Z,10.33
2018-05-21T11:35:10.282Z,10.8
2018-05-21T11:36:10.274Z,10.59
2018-05-21T11:37:10.185Z,10.75
2018-05-21T11:38:10.171Z,10.71
2018-05-21T11:39:10.258Z,10.67
2018-05-21T11:40:10.271Z,10.71
2018-05-21T11:41:10.225Z,10.74
2018-05-21T11:42:10.221Z,10.38
2018-05-21T11:43:10.192Z,10.42
2018-05-21T11:44:10.190Z,10.58
2018-05-21T11:45:10.247Z,10.54
2018-05-21T11:46:10.284Z,10.43
2018-05-21T11:47:10.194Z,10.31
2018-05-21T11:48:10.227Z,10.35
2018-05-21T11:49:10.270Z,10.53
2018-05-21T11:50:10.381Z,10.59
2018-05-21T11:51:10.352Z,10.6
2018-05-21T11:52:10.220Z,10.79
2018-05-21T11:53:10.234Z,10.56
2018-05-21T11:54:10.334Z,10.78
2018-05-21T11:55:10.371Z,10.77
2018-05-21T11:56:10.218Z,10.8
2018-05-21T11:57:10.438Z,10.93
2018-05-21T11:58:10.438Z,10.82
2018-05-21T11:59:10.263Z,10.75
2018-05-21T12:00:10.219Z,10.63
2018-05-21T12:01:10.222Z,10.78
2018-05-21T12:02:10.196Z,10.98
2018-05-21T12:03:10.239Z,10.91
2018-05-21T12:04:11.209Z,10.78
2018-05-21T12:05:10.209Z,10.69
2018-05-21T12:06:10.223Z,10.64
2018-05-21T12:07:10.295Z,10.34
2018-05-21T12:08:10.211Z,10.73
2018-05-21T12:09:10.206Z,10.73
2018-05-21T12:10:10.248Z,10.94
2018-05-21T12:11:15.395Z,10.82
2018-05-21T12:12:10.221Z,11.06
2018-05-21T12:13:10.207Z,11.01
2018-05-21T12:14:10.252Z,10.79
2018-05-21T12:15:10.242Z,10.43
2018-05-21T12:16:10.226Z,10.46
2018-05-21T12:17:10.254Z,10.55
2018-05-21T12:18:10.241Z,10.51
2018-05-21T12:19:10.217Z,10.53
2018-05-21T12:20:10.232Z,10.83
2018-05-21T12:21:10.342Z,10.71
2018-05-21T12:22:10.503Z,10.7
2018-05-21T12:23:10.285Z,10.51
2018-05-21T12:24:10.299Z,10.73
2018-05-21T12:25:10.224Z,10.66
2018-05-21T12:26:10.253Z,10.92
2018-05-21T12:27:10.339Z,10.9
2018-05-21T12:28:10.273Z,10.76
2018-05-21T12:29:10.349Z,10.62
2018-05-21T12:30:10.306Z,10.54
2018-05-21T12:31:10.430Z,10.54
2018-05-21T12:32:10.314Z,10.86
2018-05-21T12:33:10.307Z,10.78
2018-05-21T12:34:10.673Z,10.54
2018-05-21T12:35:10.268Z,10.79
2018-05-21T12:36:10.247Z,10.8
2018-05-21T12:37:10.404Z,10.69
2018-05-21T12:38:10.608Z,10.61
2018-05-21T12:39:10.340Z,10.44
2018-05-21T12:40:10.281Z,10.64
2018-05-21T12:41:10.238Z,10.75
2018-05-21T12:42:10.291Z,10.8
2018-05-21T12:43:10.289Z,10.6
2018-05-21T12:44:10.541Z,10.77
2018-05-21T12:45:10.277Z,10.97
2018-05-21T12:46:10.320Z,10.73
2018-05-21T12:47:10.210Z,10.8
2018-05-21T12:48:10.272Z,10.44
2018-05-21T12:49:10.332Z,10.38
2018-05-21T12:50:10.242Z,10.29
2018-05-21T12:51:10.228Z,10.58
2018-05-21T12:52:10.282Z,10.61
2018-05-21T12:53:10.227Z,10.79
2018-05-21T12:54:10.254Z,10.91
2018-05-21T12:55:10.392Z,10.82
2018-05-21T12:56:10.365Z,10.73
2018-05-21T12:57:10.497Z,10.9
2018-05-21T12:58:10.369Z,10.85
2018-05-21T12:59:10.478Z,11.01
2018-05-21T13:00:10.391Z,11.14
2018-05-21T13:01:10.524Z,10.82
2018-05-21T13:02:10.509Z,10.95
2018-05-21T13:03:10.395Z,11.16
2018-05-21T13:04:10.389Z,10.94
2018-05-21T13:05:10.667Z,11.12
2018-05-21T13:06:10.407Z,11.17
2018-05-21T13:07:10.401Z,11.1
2018-05-21T13:08:10.407Z,11.21
2018-05-21T13:09:10.440Z,10.97
2018-05-21T13:10:10.414Z,11.3
2018-05-21T13:11:10.451Z,11.23
2018-05-21T13:12:10.530Z,11.14
2018-05-21T13:13:10.439Z,11.18